sensor_id;sensor_type;location;lat;lon;timestamp;pressure;altitude;pressure_sealevel;temperature
44429;BMP180;30134;47.866;-4.222;2023-03-23T00:00:10;99991.00;;;23.80
44429;BMP180;30134;47.866;-4.222;2023-03-23T00:02:36;99995.00;;;23.80
44429;BMP180;30134;47.866;-4.222;2023-03-23T00:05:05;99991.00;;;23.80
44429;BMP180;30134;47.866;-4.222;2023-03-23T00:07:33;100001.00;;;23.80
44429;BMP180;30134;47.866;-4.222;2023-03-23T00:09:59;99993.00;;;23.70
44429;BMP180;30134;47.866;-4.222;2023-03-23T00:12:31;99995.00;;;23.70
44429;BMP180;30134;47.866;-4.222;2023-03-23T00:15:01;99995.00;;;23.70
44429;BMP180;30134;47.866;-4.222;2023-03-23T00:17:29;99990.00;;;23.70
44429;BMP180;30134;47.866;-4.222;2023-03-23T00:19:59;99989.00;;;23.70
44429;BMP180;30134;47.866;-4.222;2023-03-23T00:22:28;99989.00;;;23.70
44429;BMP180;30134;47.866;-4.222;2023-03-23T00:24:55;99990.00;;;23.80
44429;BMP180;30134;47.866;-4.222;2023-03-23T00:27:21;99999.00;;;23.70
44429;BMP180;30134;47.866;-4.222;2023-03-23T00:29:51;99996.00;;;23.70
44429;BMP180;30134;47.866;-4.222;2023-03-23T00:32:23;100000.00;;;23.80
44429;BMP180;30134;47.866;-4.222;2023-03-23T00:34:54;99995.00;;;23.80
44429;BMP180;30134;47.866;-4.222;2023-03-23T00:37:20;99992.00;;;23.70
44429;BMP180;30134;47.866;-4.222;2023-03-23T00:39:47;99998.00;;;23.70
44429;BMP180;30134;47.866;-4.222;2023-03-23T00:42:15;99993.00;;;23.70
44429;BMP180;30134;47.866;-4.222;2023-03-23T00:44:42;100003.00;;;23.70
44429;BMP180;30134;47.866;-4.222;2023-03-23T00:47:11;100004.00;;;23.70
44429;BMP180;30134;47.866;-4.222;2023-03-23T00:49:38;100002.00;;;23.70
44429;BMP180;30134;47.866;-4.222;2023-03-23T00:52:06;100008.00;;;23.70
44429;BMP180;30134;47.866;-4.222;2023-03-23T00:54:32;100006.00;;;23.70
44429;BMP180;30134;47.866;-4.222;2023-03-23T00:57:00;100007.00;;;23.70
44429;BMP180;30134;47.866;-4.222;2023-03-23T00:59:26;100006.00;;;23.70
44429;BMP180;30134;47.866;-4.222;2023-03-23T01:01:52;100008.00;;;23.70
44429;BMP180;30134;47.866;-4.222;2023-03-23T01:04:18;100011.00;;;23.70
44429;BMP180;30134;47.866;-4.222;2023-03-23T01:06:49;100012.00;;;23.70
44429;BMP180;30134;47.866;-4.222;2023-03-23T01:09:17;100020.00;;;23.70
44429;BMP180;30134;47.866;-4.222;2023-03-23T01:11:45;100019.00;;;23.70
44429;BMP180;30134;47.866;-4.222;2023-03-23T01:14:14;100013.00;;;23.70
44429;BMP180;30134;47.866;-4.222;2023-03-23T01:16:40;100007.00;;;23.70
44429;BMP180;30134;47.866;-4.222;2023-03-23T01:19:07;100015.00;;;23.70
44429;BMP180;30134;47.866;-4.222;2023-03-23T01:21:33;100010.00;;;23.70
44429;BMP180;30134;47.866;-4.222;2023-03-23T01:23:59;100010.00;;;23.70
44429;BMP180;30134;47.866;-4.222;2023-03-23T01:26:27;100018.00;;;23.70
44429;BMP180;30134;47.866;-4.222;2023-03-23T01:28:54;100021.00;;;23.70
44429;BMP180;30134;47.866;-4.222;2023-03-23T01:31:25;100015.00;;;23.70
44429;BMP180;30134;47.866;-4.222;2023-03-23T01:33:52;100022.00;;;23.70
44429;BMP180;30134;47.866;-4.222;2023-03-23T01:36:25;100016.00;;;23.70
44429;BMP180;30134;47.866;-4.222;2023-03-23T01:39:05;100021.00;;;23.70
44429;BMP180;30134;47.866;-4.222;2023-03-23T01:41:33;100024.00;;;23.70
44429;BMP180;30134;47.866;-4.222;2023-03-23T01:46:44;100035.00;;;23.70
44429;BMP180;30134;47.866;-4.222;2023-03-23T01:49:17;100024.00;;;23.70
44429;BMP180;30134;47.866;-4.222;2023-03-23T01:52:04;100029.00;;;23.70
44429;BMP180;30134;47.866;-4.222;2023-03-23T01:54:32;100017.00;;;23.70
44429;BMP180;30134;47.866;-4.222;2023-03-23T01:57:10;99998.00;;;23.70
44429;BMP180;30134;47.866;-4.222;2023-03-23T01:59:37;100007.00;;;23.70
44429;BMP180;30134;47.866;-4.222;2023-03-23T02:02:03;100011.00;;;23.70
44429;BMP180;30134;47.866;-4.222;2023-03-23T02:04:31;100012.00;;;23.70
44429;BMP180;30134;47.866;-4.222;2023-03-23T02:06:57;100009.00;;;23.70
44429;BMP180;30134;47.866;-4.222;2023-03-23T02:09:27;100003.00;;;23.70
44429;BMP180;30134;47.866;-4.222;2023-03-23T02:11:54;100011.00;;;23.70
44429;BMP180;30134;47.866;-4.222;2023-03-23T02:14:22;100008.00;;;23.70
44429;BMP180;30134;47.866;-4.222;2023-03-23T02:25:59;99990.00;;;23.70
44429;BMP180;30134;47.866;-4.222;2023-03-23T02:28:54;99983.00;;;23.70
44429;BMP180;30134;47.866;-4.222;2023-03-23T02:37:50;99975.00;;;23.60
44429;BMP180;30134;47.866;-4.222;2023-03-23T02:40:30;99977.00;;;23.70
44429;BMP180;30134;47.866;-4.222;2023-03-23T02:42:59;99980.00;;;23.70
44429;BMP180;30134;47.866;-4.222;2023-03-23T02:45:29;99976.00;;;23.70
44429;BMP180;30134;47.866;-4.222;2023-03-23T02:47:56;99965.00;;;23.60
44429;BMP180;30134;47.866;-4.222;2023-03-23T02:50:24;99975.00;;;23.70
44429;BMP180;30134;47.866;-4.222;2023-03-23T02:52:53;99972.00;;;23.70
44429;BMP180;30134;47.866;-4.222;2023-03-23T02:55:22;99976.00;;;24.00
44429;BMP180;30134;47.866;-4.222;2023-03-23T02:57:55;99984.00;;;23.80
44429;BMP180;30134;47.866;-4.222;2023-03-23T03:00:22;99978.00;;;23.70
44429;BMP180;30134;47.866;-4.222;2023-03-23T03:02:53;99981.00;;;23.70
44429;BMP180;30134;47.866;-4.222;2023-03-23T03:05:59;99968.00;;;23.70
44429;BMP180;30134;47.866;-4.222;2023-03-23T03:08:45;99964.00;;;23.70
44429;BMP180;30134;47.866;-4.222;2023-03-23T03:11:15;99983.00;;;23.70
44429;BMP180;30134;47.866;-4.222;2023-03-23T03:14:06;99974.00;;;23.60
44429;BMP180;30134;47.866;-4.222;2023-03-23T03:16:58;99973.00;;;23.70
44429;BMP180;30134;47.866;-4.222;2023-03-23T03:19:31;99968.00;;;23.60
44429;BMP180;30134;47.866;-4.222;2023-03-23T03:21:59;99972.00;;;23.70
44429;BMP180;30134;47.866;-4.222;2023-03-23T03:24:28;99952.00;;;23.60
44429;BMP180;30134;47.866;-4.222;2023-03-23T03:26:58;99944.00;;;23.60
44429;BMP180;30134;47.866;-4.222;2023-03-23T03:29:34;99943.00;;;23.60
44429;BMP180;30134;47.866;-4.222;2023-03-23T03:32:03;99953.00;;;23.60
44429;BMP180;30134;47.866;-4.222;2023-03-23T03:34:34;99954.00;;;23.70
44429;BMP180;30134;47.866;-4.222;2023-03-23T03:37:00;99964.00;;;23.60
44429;BMP180;30134;47.866;-4.222;2023-03-23T03:39:27;99942.00;;;23.70
44429;BMP180;30134;47.866;-4.222;2023-03-23T03:41:54;99946.00;;;23.70
44429;BMP180;30134;47.866;-4.222;2023-03-23T03:44:23;99956.00;;;23.70
44429;BMP180;30134;47.866;-4.222;2023-03-23T03:46:49;99948.00;;;23.60
44429;BMP180;30134;47.866;-4.222;2023-03-23T03:49:15;99947.00;;;23.70
44429;BMP180;30134;47.866;-4.222;2023-03-23T03:51:42;99952.00;;;23.60
44429;BMP180;30134;47.866;-4.222;2023-03-23T03:54:14;99943.00;;;23.60
44429;BMP180;30134;47.866;-4.222;2023-03-23T03:56:41;99944.00;;;23.60
44429;BMP180;30134;47.866;-4.222;2023-03-23T03:59:09;99952.00;;;23.70
44429;BMP180;30134;47.866;-4.222;2023-03-23T04:01:37;99947.00;;;23.60
44429;BMP180;30134;47.866;-4.222;2023-03-23T04:04:04;99957.00;;;23.70
44429;BMP180;30134;47.866;-4.222;2023-03-23T04:06:33;99968.00;;;23.60
44429;BMP180;30134;47.866;-4.222;2023-03-23T04:09:03;99970.00;;;23.70
44429;BMP180;30134;47.866;-4.222;2023-03-23T04:11:32;99978.00;;;23.60
44429;BMP180;30134;47.866;-4.222;2023-03-23T04:13:59;99981.00;;;23.60
44429;BMP180;30134;47.866;-4.222;2023-03-23T04:16:25;99977.00;;;23.60
44429;BMP180;30134;47.866;-4.222;2023-03-23T04:18:52;99980.00;;;23.70
44429;BMP180;30134;47.866;-4.222;2023-03-23T04:21:18;99979.00;;;23.70
44429;BMP180;30134;47.866;-4.222;2023-03-23T04:23:44;99978.00;;;23.60
44429;BMP180;30134;47.866;-4.222;2023-03-23T04:26:10;99987.00;;;23.60
44429;BMP180;30134;47.866;-4.222;2023-03-23T04:28:39;99970.00;;;23.60
44429;BMP180;30134;47.866;-4.222;2023-03-23T04:31:06;99975.00;;;23.60
44429;BMP180;30134;47.866;-4.222;2023-03-23T04:33:34;99979.00;;;23.60
44429;BMP180;30134;47.866;-4.222;2023-03-23T04:36:03;99976.00;;;23.60
44429;BMP180;30134;47.866;-4.222;2023-03-23T04:38:29;99969.00;;;23.60
44429;BMP180;30134;47.866;-4.222;2023-03-23T04:40:58;99968.00;;;23.60
44429;BMP180;30134;47.866;-4.222;2023-03-23T04:43:26;99974.00;;;23.60
44429;BMP180;30134;47.866;-4.222;2023-03-23T04:45:57;99978.00;;;23.60
44429;BMP180;30134;47.866;-4.222;2023-03-23T04:48:26;99977.00;;;23.60
44429;BMP180;30134;47.866;-4.222;2023-03-23T04:50:53;99982.00;;;23.60
44429;BMP180;30134;47.866;-4.222;2023-03-23T04:53:20;99989.00;;;23.60
44429;BMP180;30134;47.866;-4.222;2023-03-23T04:55:47;99979.00;;;23.60
44429;BMP180;30134;47.866;-4.222;2023-03-23T04:58:16;99980.00;;;23.60
44429;BMP180;30134;47.866;-4.222;2023-03-23T05:00:43;99978.00;;;23.60
44429;BMP180;30134;47.866;-4.222;2023-03-23T05:03:10;99972.00;;;23.60
44429;BMP180;30134;47.866;-4.222;2023-03-23T05:05:37;99979.00;;;23.60
44429;BMP180;30134;47.866;-4.222;2023-03-23T05:08:03;99982.00;;;23.60
44429;BMP180;30134;47.866;-4.222;2023-03-23T05:10:29;99981.00;;;23.60
44429;BMP180;30134;47.866;-4.222;2023-03-23T05:12:55;99981.00;;;23.60
44429;BMP180;30134;47.866;-4.222;2023-03-23T05:15:21;99990.00;;;23.60
44429;BMP180;30134;47.866;-4.222;2023-03-23T05:17:47;99987.00;;;23.60
44429;BMP180;30134;47.866;-4.222;2023-03-23T05:20:16;99986.00;;;23.60
44429;BMP180;30134;47.866;-4.222;2023-03-23T05:22:47;99994.00;;;23.60
44429;BMP180;30134;47.866;-4.222;2023-03-23T05:25:17;100006.00;;;23.60
44429;BMP180;30134;47.866;-4.222;2023-03-23T05:27:47;100007.00;;;23.60
44429;BMP180;30134;47.866;-4.222;2023-03-23T05:30:20;100015.00;;;23.60
44429;BMP180;30134;47.866;-4.222;2023-03-23T05:32:48;100004.00;;;23.60
44429;BMP180;30134;47.866;-4.222;2023-03-23T05:35:18;100013.00;;;23.60
44429;BMP180;30134;47.866;-4.222;2023-03-23T05:37:45;100008.00;;;23.60
44429;BMP180;30134;47.866;-4.222;2023-03-23T05:40:12;100013.00;;;23.50
44429;BMP180;30134;47.866;-4.222;2023-03-23T05:42:40;100008.00;;;23.60
44429;BMP180;30134;47.866;-4.222;2023-03-23T05:45:10;100012.00;;;23.60
44429;BMP180;30134;47.866;-4.222;2023-03-23T05:47:40;100013.00;;;23.60
44429;BMP180;30134;47.866;-4.222;2023-03-23T05:50:08;100011.00;;;23.60
44429;BMP180;30134;47.866;-4.222;2023-03-23T05:52:38;100003.00;;;23.60
44429;BMP180;30134;47.866;-4.222;2023-03-23T05:55:05;99999.00;;;23.60
44429;BMP180;30134;47.866;-4.222;2023-03-23T05:57:32;99995.00;;;23.60
44429;BMP180;30134;47.866;-4.222;2023-03-23T05:59:58;100000.00;;;23.60
44429;BMP180;30134;47.866;-4.222;2023-03-23T06:02:25;100000.00;;;23.60
44429;BMP180;30134;47.866;-4.222;2023-03-23T06:04:55;99994.00;;;23.60
44429;BMP180;30134;47.866;-4.222;2023-03-23T06:07:24;99988.00;;;23.60
44429;BMP180;30134;47.866;-4.222;2023-03-23T06:09:55;99982.00;;;23.60
44429;BMP180;30134;47.866;-4.222;2023-03-23T06:12:21;99987.00;;;23.60
44429;BMP180;30134;47.866;-4.222;2023-03-23T06:14:48;99984.00;;;23.60
44429;BMP180;30134;47.866;-4.222;2023-03-23T06:17:15;99986.00;;;23.60
44429;BMP180;30134;47.866;-4.222;2023-03-23T06:19:43;99978.00;;;23.60
44429;BMP180;30134;47.866;-4.222;2023-03-23T06:22:14;99993.00;;;23.60
44429;BMP180;30134;47.866;-4.222;2023-03-23T06:24:41;99993.00;;;23.60
44429;BMP180;30134;47.866;-4.222;2023-03-23T06:27:07;99987.00;;;23.60
44429;BMP180;30134;47.866;-4.222;2023-03-23T06:29:35;99983.00;;;23.60
44429;BMP180;30134;47.866;-4.222;2023-03-23T06:32:03;99996.00;;;23.60
44429;BMP180;30134;47.866;-4.222;2023-03-23T06:34:30;99986.00;;;23.50
44429;BMP180;30134;47.866;-4.222;2023-03-23T06:36:58;99991.00;;;23.60
44429;BMP180;30134;47.866;-4.222;2023-03-23T06:39:26;99982.00;;;23.60
44429;BMP180;30134;47.866;-4.222;2023-03-23T06:41:52;99990.00;;;23.60
44429;BMP180;30134;47.866;-4.222;2023-03-23T06:44:18;99986.00;;;23.60
44429;BMP180;30134;47.866;-4.222;2023-03-23T06:46:44;99996.00;;;23.60
44429;BMP180;30134;47.866;-4.222;2023-03-23T06:49:10;99983.00;;;23.60
44429;BMP180;30134;47.866;-4.222;2023-03-23T06:51:36;99983.00;;;23.60
44429;BMP180;30134;47.866;-4.222;2023-03-23T06:54:04;99988.00;;;23.50
44429;BMP180;30134;47.866;-4.222;2023-03-23T06:56:31;99984.00;;;23.50
44429;BMP180;30134;47.866;-4.222;2023-03-23T06:58:57;99981.00;;;23.60
44429;BMP180;30134;47.866;-4.222;2023-03-23T07:01:23;99984.00;;;23.60
44429;BMP180;30134;47.866;-4.222;2023-03-23T07:03:49;99980.00;;;23.50
44429;BMP180;30134;47.866;-4.222;2023-03-23T07:06:15;99983.00;;;23.60
44429;BMP180;30134;47.866;-4.222;2023-03-23T07:08:42;99977.00;;;23.60
44429;BMP180;30134;47.866;-4.222;2023-03-23T07:11:08;99987.00;;;23.50
44429;BMP180;30134;47.866;-4.222;2023-03-23T07:13:35;99994.00;;;23.50
44429;BMP180;30134;47.866;-4.222;2023-03-23T07:16:05;99994.00;;;23.60
44429;BMP180;30134;47.866;-4.222;2023-03-23T07:18:32;100002.00;;;23.50
44429;BMP180;30134;47.866;-4.222;2023-03-23T07:20:58;100000.00;;;23.50
44429;BMP180;30134;47.866;-4.222;2023-03-23T07:23:25;99999.00;;;23.50
44429;BMP180;30134;47.866;-4.222;2023-03-23T07:25:51;99999.00;;;23.50
44429;BMP180;30134;47.866;-4.222;2023-03-23T07:28:18;100004.00;;;23.50
44429;BMP180;30134;47.866;-4.222;2023-03-23T07:30:44;99998.00;;;23.50
44429;BMP180;30134;47.866;-4.222;2023-03-23T07:33:16;99994.00;;;23.50
44429;BMP180;30134;47.866;-4.222;2023-03-23T07:35:43;99994.00;;;23.50
44429;BMP180;30134;47.866;-4.222;2023-03-23T07:38:09;99985.00;;;23.50
44429;BMP180;30134;47.866;-4.222;2023-03-23T07:40:35;99995.00;;;23.50
44429;BMP180;30134;47.866;-4.222;2023-03-23T07:43:03;99987.00;;;23.50
44429;BMP180;30134;47.866;-4.222;2023-03-23T07:45:30;99980.00;;;23.50
44429;BMP180;30134;47.866;-4.222;2023-03-23T07:47:57;99987.00;;;23.50
44429;BMP180;30134;47.866;-4.222;2023-03-23T07:50:23;99991.00;;;23.50
44429;BMP180;30134;47.866;-4.222;2023-03-23T07:52:56;99976.00;;;23.50
44429;BMP180;30134;47.866;-4.222;2023-03-23T07:55:24;99991.00;;;23.50
44429;BMP180;30134;47.866;-4.222;2023-03-23T07:57:51;99985.00;;;23.50
44429;BMP180;30134;47.866;-4.222;2023-03-23T08:00:19;99972.00;;;23.50
44429;BMP180;30134;47.866;-4.222;2023-03-23T08:02:51;99982.00;;;23.50
44429;BMP180;30134;47.866;-4.222;2023-03-23T08:05:18;99969.00;;;23.50
44429;BMP180;30134;47.866;-4.222;2023-03-23T08:07:46;99971.00;;;23.50
44429;BMP180;30134;47.866;-4.222;2023-03-23T08:10:14;99964.00;;;23.50
44429;BMP180;30134;47.866;-4.222;2023-03-23T08:12:42;99972.00;;;23.50
44429;BMP180;30134;47.866;-4.222;2023-03-23T08:15:11;99982.00;;;23.50
44429;BMP180;30134;47.866;-4.222;2023-03-23T08:17:41;99984.00;;;23.50
44429;BMP180;30134;47.866;-4.222;2023-03-23T08:20:09;99996.00;;;23.50
44429;BMP180;30134;47.866;-4.222;2023-03-23T08:22:53;100000.00;;;23.50
44429;BMP180;30134;47.866;-4.222;2023-03-23T08:25:34;100005.00;;;23.50
44429;BMP180;30134;47.866;-4.222;2023-03-23T08:28:01;100010.00;;;23.50
44429;BMP180;30134;47.866;-4.222;2023-03-23T08:30:28;100004.00;;;23.50
44429;BMP180;30134;47.866;-4.222;2023-03-23T08:32:57;99990.00;;;23.50
44429;BMP180;30134;47.866;-4.222;2023-03-23T08:35:23;99985.00;;;23.50
44429;BMP180;30134;47.866;-4.222;2023-03-23T08:37:50;99992.00;;;23.50
44429;BMP180;30134;47.866;-4.222;2023-03-23T08:40:19;99993.00;;;23.50
44429;BMP180;30134;47.866;-4.222;2023-03-23T08:42:47;100008.00;;;23.50
44429;BMP180;30134;47.866;-4.222;2023-03-23T08:45:17;100018.00;;;23.50
44429;BMP180;30134;47.866;-4.222;2023-03-23T08:47:44;100015.00;;;23.50
44429;BMP180;30134;47.866;-4.222;2023-03-23T08:50:15;100014.00;;;23.50
44429;BMP180;30134;47.866;-4.222;2023-03-23T08:52:42;100003.00;;;23.50
44429;BMP180;30134;47.866;-4.222;2023-03-23T08:55:09;100006.00;;;23.50
44429;BMP180;30134;47.866;-4.222;2023-03-23T08:57:36;100003.00;;;23.50
44429;BMP180;30134;47.866;-4.222;2023-03-23T09:00:08;99991.00;;;23.50
44429;BMP180;30134;47.866;-4.222;2023-03-23T09:02:49;100011.00;;;23.50
44429;BMP180;30134;47.866;-4.222;2023-03-23T09:05:17;100000.00;;;23.50
44429;BMP180;30134;47.866;-4.222;2023-03-23T09:07:47;100000.00;;;23.50
44429;BMP180;30134;47.866;-4.222;2023-03-23T09:10:14;99998.00;;;23.50
44429;BMP180;30134;47.866;-4.222;2023-03-23T09:12:42;100001.00;;;23.50
44429;BMP180;30134;47.866;-4.222;2023-03-23T09:15:11;100015.00;;;23.50
44429;BMP180;30134;47.866;-4.222;2023-03-23T09:17:47;100010.00;;;23.50
44429;BMP180;30134;47.866;-4.222;2023-03-23T09:20:19;100017.00;;;23.50
44429;BMP180;30134;47.866;-4.222;2023-03-23T09:22:50;100008.00;;;23.50
44429;BMP180;30134;47.866;-4.222;2023-03-23T09:25:18;100021.00;;;23.50
44429;BMP180;30134;47.866;-4.222;2023-03-23T09:27:51;100027.00;;;23.50
44429;BMP180;30134;47.866;-4.222;2023-03-23T09:30:25;100035.00;;;23.50
44429;BMP180;30134;47.866;-4.222;2023-03-23T09:32:53;100018.00;;;23.50
44429;BMP180;30134;47.866;-4.222;2023-03-23T09:35:19;100012.00;;;23.50
44429;BMP180;30134;47.866;-4.222;2023-03-23T09:37:48;100010.00;;;23.50
44429;BMP180;30134;47.866;-4.222;2023-03-23T09:40:25;100025.00;;;23.50
44429;BMP180;30134;47.866;-4.222;2023-03-23T09:43:13;100019.00;;;23.50
44429;BMP180;30134;47.866;-4.222;2023-03-23T09:48:58;100017.00;;;23.50
44429;BMP180;30134;47.866;-4.222;2023-03-23T09:51:57;100011.00;;;23.50
44429;BMP180;30134;47.866;-4.222;2023-03-23T09:54:44;100004.00;;;23.50
44429;BMP180;30134;47.866;-4.222;2023-03-23T09:57:46;100004.00;;;23.50
44429;BMP180;30134;47.866;-4.222;2023-03-23T10:00:34;99993.00;;;23.50
44429;BMP180;30134;47.866;-4.222;2023-03-23T10:03:21;99975.00;;;23.50
44429;BMP180;30134;47.866;-4.222;2023-03-23T10:05:51;99978.00;;;23.50
44429;BMP180;30134;47.866;-4.222;2023-03-23T10:08:31;99984.00;;;23.50
44429;BMP180;30134;47.866;-4.222;2023-03-23T10:11:02;99978.00;;;23.50
44429;BMP180;30134;47.866;-4.222;2023-03-23T10:14:12;99979.00;;;23.50
44429;BMP180;30134;47.866;-4.222;2023-03-23T10:20:15;99988.00;;;23.50
44429;BMP180;30134;47.866;-4.222;2023-03-23T10:23:13;99984.00;;;23.50
44429;BMP180;30134;47.866;-4.222;2023-03-23T10:26:18;99977.00;;;23.50
44429;BMP180;30134;47.866;-4.222;2023-03-23T10:28:54;99971.00;;;23.50
44429;BMP180;30134;47.866;-4.222;2023-03-23T10:31:34;99985.00;;;23.50
44429;BMP180;30134;47.866;-4.222;2023-03-23T10:34:32;99989.00;;;23.40
44429;BMP180;30134;47.866;-4.222;2023-03-23T10:37:14;99986.00;;;23.40
44429;BMP180;30134;47.866;-4.222;2023-03-23T10:39:52;99996.00;;;23.40
44429;BMP180;30134;47.866;-4.222;2023-03-23T10:42:39;99978.00;;;23.40
44429;BMP180;30134;47.866;-4.222;2023-03-23T10:45:24;99993.00;;;23.50
44429;BMP180;30134;47.866;-4.222;2023-03-23T10:48:28;99968.00;;;23.40
44429;BMP180;30134;47.866;-4.222;2023-03-23T10:51:00;99966.00;;;23.40
44429;BMP180;30134;47.866;-4.222;2023-03-23T10:53:59;99965.00;;;23.40
44429;BMP180;30134;47.866;-4.222;2023-03-23T10:56:42;99973.00;;;23.40
44429;BMP180;30134;47.866;-4.222;2023-03-23T10:59:41;99976.00;;;23.40
44429;BMP180;30134;47.866;-4.222;2023-03-23T11:02:18;99954.00;;;23.40
44429;BMP180;30134;47.866;-4.222;2023-03-23T11:05:14;99952.00;;;23.40
44429;BMP180;30134;47.866;-4.222;2023-03-23T11:07:41;99945.00;;;23.40
44429;BMP180;30134;47.866;-4.222;2023-03-23T11:10:34;99952.00;;;23.40
44429;BMP180;30134;47.866;-4.222;2023-03-23T11:13:01;99945.00;;;23.40
44429;BMP180;30134;47.866;-4.222;2023-03-23T11:15:39;99951.00;;;23.40
44429;BMP180;30134;47.866;-4.222;2023-03-23T11:18:18;99952.00;;;23.40
44429;BMP180;30134;47.866;-4.222;2023-03-23T11:20:47;99949.00;;;23.40
44429;BMP180;30134;47.866;-4.222;2023-03-23T11:23:55;99952.00;;;23.40
44429;BMP180;30134;47.866;-4.222;2023-03-23T11:26:32;99948.00;;;23.40
44429;BMP180;30134;47.866;-4.222;2023-03-23T11:31:52;99958.00;;;23.40
44429;BMP180;30134;47.866;-4.222;2023-03-23T11:34:23;99960.00;;;23.40
44429;BMP180;30134;47.866;-4.222;2023-03-23T11:36:53;99960.00;;;23.40
44429;BMP180;30134;47.866;-4.222;2023-03-23T11:39:55;99956.00;;;23.40
44429;BMP180;30134;47.866;-4.222;2023-03-23T11:42:34;99954.00;;;23.40
44429;BMP180;30134;47.866;-4.222;2023-03-23T11:48:44;99944.00;;;23.50
44429;BMP180;30134;47.866;-4.222;2023-03-23T11:54:43;99934.00;;;23.50
44429;BMP180;30134;47.866;-4.222;2023-03-23T11:57:11;99937.00;;;23.50
44429;BMP180;30134;47.866;-4.222;2023-03-23T11:59:39;99932.00;;;23.50
44429;BMP180;30134;47.866;-4.222;2023-03-23T12:05:59;99936.00;;;23.50
44429;BMP180;30134;47.866;-4.222;2023-03-23T12:20:08;99937.00;;;23.50
44429;BMP180;30134;47.866;-4.222;2023-03-23T12:26:20;99925.00;;;23.50
44429;BMP180;30134;47.866;-4.222;2023-03-23T12:41:10;99892.00;;;23.50
44429;BMP180;30134;47.866;-4.222;2023-03-23T12:43:47;99883.00;;;23.50
44429;BMP180;30134;47.866;-4.222;2023-03-23T12:57:33;99854.00;;;23.40
44429;BMP180;30134;47.866;-4.222;2023-03-23T13:00:14;99835.00;;;23.40
44429;BMP180;30134;47.866;-4.222;2023-03-23T13:03:02;99834.00;;;23.40
44429;BMP180;30134;47.866;-4.222;2023-03-23T13:05:40;99832.00;;;23.40
44429;BMP180;30134;47.866;-4.222;2023-03-23T13:08:19;99818.00;;;23.40
44429;BMP180;30134;47.866;-4.222;2023-03-23T13:10:52;99808.00;;;23.40
44429;BMP180;30134;47.866;-4.222;2023-03-23T13:13:26;99805.00;;;23.40
44429;BMP180;30134;47.866;-4.222;2023-03-23T13:16:36;99785.00;;;23.40
44429;BMP180;30134;47.866;-4.222;2023-03-23T13:19:21;99785.00;;;23.50
44429;BMP180;30134;47.866;-4.222;2023-03-23T13:22:17;99777.00;;;23.40
44429;BMP180;30134;47.866;-4.222;2023-03-23T13:25:00;99763.00;;;23.40
44429;BMP180;30134;47.866;-4.222;2023-03-23T13:27:28;99764.00;;;23.40
44429;BMP180;30134;47.866;-4.222;2023-03-23T13:29:58;99755.00;;;23.40
44429;BMP180;30134;47.866;-4.222;2023-03-23T13:32:40;99754.00;;;23.40
44429;BMP180;30134;47.866;-4.222;2023-03-23T13:35:13;99751.00;;;23.40
44429;BMP180;30134;47.866;-4.222;2023-03-23T13:37:50;99757.00;;;23.40
44429;BMP180;30134;47.866;-4.222;2023-03-23T13:40:30;99749.00;;;23.40
44429;BMP180;30134;47.866;-4.222;2023-03-23T13:43:01;99753.00;;;23.40
44429;BMP180;30134;47.866;-4.222;2023-03-23T13:48:24;99749.00;;;23.40
44429;BMP180;30134;47.866;-4.222;2023-03-23T13:51:00;99745.00;;;23.40
44429;BMP180;30134;47.866;-4.222;2023-03-23T13:53:47;99746.00;;;23.40
44429;BMP180;30134;47.866;-4.222;2023-03-23T13:59:45;99744.00;;;23.30
44429;BMP180;30134;47.866;-4.222;2023-03-23T14:04:56;99723.00;;;23.30
44429;BMP180;30134;47.866;-4.222;2023-03-23T14:07:23;99732.00;;;23.30
44429;BMP180;30134;47.866;-4.222;2023-03-23T14:09:50;99716.00;;;23.30
44429;BMP180;30134;47.866;-4.222;2023-03-23T14:12:18;99714.00;;;23.30
44429;BMP180;30134;47.866;-4.222;2023-03-23T14:14:48;99709.00;;;23.30
44429;BMP180;30134;47.866;-4.222;2023-03-23T14:17:19;99705.00;;;23.30
44429;BMP180;30134;47.866;-4.222;2023-03-23T14:19:55;99678.00;;;23.40
44429;BMP180;30134;47.866;-4.222;2023-03-23T14:22:37;99694.00;;;23.30
44429;BMP180;30134;47.866;-4.222;2023-03-23T14:25:12;99688.00;;;23.30
44429;BMP180;30134;47.866;-4.222;2023-03-23T14:27:39;99691.00;;;23.40
44429;BMP180;30134;47.866;-4.222;2023-03-23T14:30:20;99680.00;;;23.40
44429;BMP180;30134;47.866;-4.222;2023-03-23T14:32:47;99673.00;;;23.40
44429;BMP180;30134;47.866;-4.222;2023-03-23T14:35:26;99672.00;;;23.40
44429;BMP180;30134;47.866;-4.222;2023-03-23T14:37:55;99657.00;;;23.40
44429;BMP180;30134;47.866;-4.222;2023-03-23T14:40:21;99649.00;;;23.50
44429;BMP180;30134;47.866;-4.222;2023-03-23T14:42:49;99642.00;;;23.50
44429;BMP180;30134;47.866;-4.222;2023-03-23T14:45:18;99630.00;;;23.50
44429;BMP180;30134;47.866;-4.222;2023-03-23T14:47:54;99636.00;;;23.50
44429;BMP180;30134;47.866;-4.222;2023-03-23T14:50:37;99608.00;;;23.50
44429;BMP180;30134;47.866;-4.222;2023-03-23T14:53:24;99614.00;;;23.50
44429;BMP180;30134;47.866;-4.222;2023-03-23T14:55:53;99589.00;;;23.50
44429;BMP180;30134;47.866;-4.222;2023-03-23T14:58:23;99577.00;;;23.50
44429;BMP180;30134;47.866;-4.222;2023-03-23T15:01:05;99580.00;;;23.50
44429;BMP180;30134;47.866;-4.222;2023-03-23T15:04:02;99573.00;;;23.50
44429;BMP180;30134;47.866;-4.222;2023-03-23T15:06:33;99568.00;;;23.50
44429;BMP180;30134;47.866;-4.222;2023-03-23T15:09:04;99565.00;;;23.50
44429;BMP180;30134;47.866;-4.222;2023-03-23T15:11:37;99560.00;;;23.50
44429;BMP180;30134;47.866;-4.222;2023-03-23T15:14:20;99551.00;;;23.50
44429;BMP180;30134;47.866;-4.222;2023-03-23T15:16:53;99552.00;;;23.50
44429;BMP180;30134;47.866;-4.222;2023-03-23T15:19:35;99553.00;;;23.50
44429;BMP180;30134;47.866;-4.222;2023-03-23T15:22:26;99549.00;;;23.50
44429;BMP180;30134;47.866;-4.222;2023-03-23T15:25:18;99551.00;;;23.50
44429;BMP180;30134;47.866;-4.222;2023-03-23T15:27:57;99538.00;;;23.50
44429;BMP180;30134;47.866;-4.222;2023-03-23T15:33:12;99522.00;;;23.50
44429;BMP180;30134;47.866;-4.222;2023-03-23T15:35:48;99539.00;;;23.50
44429;BMP180;30134;47.866;-4.222;2023-03-23T15:38:30;99506.00;;;23.50
44429;BMP180;30134;47.866;-4.222;2023-03-23T15:40:58;99517.00;;;23.50
44429;BMP180;30134;47.866;-4.222;2023-03-23T15:43:30;99502.00;;;23.50
44429;BMP180;30134;47.866;-4.222;2023-03-23T15:51:24;99493.00;;;23.50
44429;BMP180;30134;47.866;-4.222;2023-03-23T15:53:51;99468.00;;;23.50
44429;BMP180;30134;47.866;-4.222;2023-03-23T15:56:18;99469.00;;;23.50